Crew | Aerofun Virtual



 METAR AND TAF INFORMATION
METAR FOR GMTT
ADDS - METARS form results

(0454 UTC 20 May 2019)
Data provider http://aviationweather.gov/metar/data/
 
METAR text: GMTT 200430Z 20004KT 9999 FEW011 SCT016 17/14 Q1013 NOSIG
Conditions at: GMTT (TANGIER/BOUKHALF, MA) observed 0430 UTC 20 May 2019
Temperature: 17.0°C (63°F)
Dewpoint: 14.0°C (57°F) [RH = 82%]
Pressure (altimeter): 29.91 inches Hg (1013.0 mb)
Winds: from the SSW (200 degrees) at 5 MPH (4 knots; 2.1 m/s)
Visibility: 6 or more miles (10+ km)
Ceiling: at least 12,000 feet AGL
Clouds: few clouds at 1100 feet AGL
scattered clouds at 1600 feet AGL
Weather: no significant weather observed at this time

METAR text: GMTT 200400Z 21005KT 9999 FEW011 SCT016 17/14 Q1013 NOSIG
Conditions at: GMTT (TANGIER/BOUKHALF, MA) observed 0400 UTC 20 May 2019
Temperature: 17.0°C (63°F)
Dewpoint: 14.0°C (57°F) [RH = 82%]
Pressure (altimeter): 29.91 inches Hg (1013.0 mb)
Winds: from the SSW (210 degrees) at 6 MPH (5 knots; 2.6 m/s)
Visibility: 6 or more miles (10+ km)
Ceiling: at least 12,000 feet AGL
Clouds: few clouds at 1100 feet AGL
scattered clouds at 1600 feet AGL
Weather: no significant weather observed at this time

Forecast for: GMTT (TANGIER/BOUKHALF, MA)
Text: TAF GMTT 192300Z 2000/2106 20004KT 9999 SCT016 SCT023
Forecast period: 0000 UTC 20 May 2019 to 0600 UTC 21 May 2019
Forecast type: FROM: standard forecast or significant change
Winds: from the SSW (200 degrees) at 5 MPH (4 knots; 2.1 m/s)
Visibility: 6 or more miles 10+ km)
Ceiling: at least 12,000 feet AGL
Clouds: scattered clouds at 1600 feet AGL
scattered clouds at 2300 feet AGL
Weather: no significant weather forecast for this period
Text: TEMPO 2009/2021 26014KT
Forecast period: 0900 to 2100 UTC 20 May 2019
Forecast type: TEMPORARY: The following changes expected for less than half the time period
Winds: from the W (260 degrees) at 16 MPH (14 knots; 7.2 m/s)
Visibility: missing
Ceiling: unknown
Clouds: missing
Weather: no significant weather forecast for this period

 AIRPORT MAP

 RUNWAY INFORMATION
Runway 07 Runway length 6562 ft Runway width 98 ft
Runway elevation 0 ft Runway displaced threshold 0 ft Runway heading 69
Runway 25 Runway length 6562 ft Runway width 98 ft
Runway elevation 0 ft Runway displaced threshold 0 ft Runway heading 249
Runway 10 Runway length 11483 ft Runway width 148 ft
Runway elevation 20 ft Runway displaced threshold 0 ft Runway heading 96
Runway 28 Runway length 11483 ft Runway width 148 ft
Runway elevation 62 ft Runway displaced threshold 1640 ft Runway heading 276

 AIRPORT FREQUENCIES
Type APP Name TANGER APP Frequency 121.2 MHZ
Type TWR Name TANGER TWR Frequency 119.5 MHZ

 AIRPORT NEAR NAVIGATION AIDS
Type VOR-DME Name Tanger Frequency 115900 KHZ